Terminal Aerodrome Forecast
Issued by NWS Riverton, WY

Home | Current Version | Previous Version | Text Only | Print | Product List | Glossary On
Versions: 1 2 3 4 5 6 7 8 9 10 11 12 13 14 15 16 17
000
FTUS45 KRIW 232300
TAFRIW
TAF
KRIW 232329Z 2400/2424 21008KT P6SM SCT120
     FM240100 VRB12G22KT P6SM VCSH FEW110 SCT150
     FM240400 25011KT P6SM FEW110 SCT150
     FM241900 25020G30KT P6SM FEW120=

USA.gov is the U.S. government's official web portal to all federal, state and local government web resources and services.